Estación Meteorológica Peña el Pijo (Robertgarden) [ 02/03/23 04:21:14 CET ]

Fecha Hora Presion(HPa) Temp (°C) Humedad % Rocio (°C) Viento ( m/s) Direccion Lluvia 1Hora(mm) Lluvia 24H(mm) LLuvia Total(mm)
2010-Oct-15 01:01:12 1007.400 8.3 86 6.1         169.90
2010-Oct-15 02:01:16 1007.000 7.5 88 5.7         169.90
2010-Oct-15 03:03:12 1006.500 6.8 89 5.1         169.90
2010-Oct-15 04:01:16 1006.200 6.2 90 4.7         169.90
2010-Oct-15 05:01:14 1005.700 5.6 91 4.2         169.90
2010-Oct-15 06:01:11 1005.500 5.6 91 4.2         169.90
2010-Oct-15 07:01:16 1005.400 6.8 92 5.6         169.90
2010-Oct-15 08:01:17 1005.500 8.1 93 7.0         169.90
2010-Oct-15 09:01:13 1005.600 8.8 93 7.8         169.90
2010-Oct-15 10:01:15 1006.100 10.1 94 9.1         169.90
2010-Oct-15 11:01:14 1006.100 14.2 93 13.1         169.90
2010-Oct-15 12:01:12 1006.100 16.9 67 10.7         169.90
2010-Oct-15 13:01:16 1005.700 18.1 57 9.4         169.90
2010-Oct-15 14:01:12 1005.300 20.9 51 10.4         169.90
2010-Oct-15 15:01:11 1004.700 21.3 44 8.5         169.90
2010-Oct-15 16:01:16 1004.400 22.3 41 8.4         169.90
2010-Oct-15 17:01:13 1004.500 21.2 40 7.1         169.90
2010-Oct-15 18:01:12 1004.500 18.4 44 5.8         169.90
2010-Oct-15 19:01:12 1004.900 15.7 52 5.9         169.90
2010-Oct-15 20:01:16 1005.500 14.4 63 7.4         169.90
2010-Oct-15 21:01:12 1005.900 13.5 66 7.2         169.90
2010-Oct-15 22:01:12 1006.100 12.1 73 7.4         169.90
2010-Oct-15 23:01:12 1006.300 10.8 76 6.7         169.90

Temperatura Máxima:22°    Temperatura Mínima:
Presión Máxima:1007.400 Hpa    Presión Mínima:1004.400 Hpa


Volver